sensor_id;sensor_type;location;lat;lon;timestamp;P1;durP1;ratioP1;P2;durP2;ratioP2
43519;SDS011;46848;51.980;5.918;2023-04-01T00:00:18;5.93;;;1.47;;
43519;SDS011;46848;51.980;5.918;2023-04-01T00:02:45;3.43;;;1.10;;
43519;SDS011;46848;51.980;5.918;2023-04-01T00:05:11;5.47;;;1.40;;
43519;SDS011;46848;51.980;5.918;2023-04-01T00:07:37;3.77;;;1.37;;
43519;SDS011;46848;51.980;5.918;2023-04-01T00:10:05;3.70;;;1.20;;
43519;SDS011;46848;51.980;5.918;2023-04-01T00:12:32;2.67;;;0.90;;
43519;SDS011;46848;51.980;5.918;2023-04-01T00:14:57;3.53;;;0.80;;
43519;SDS011;46848;51.980;5.918;2023-04-01T00:17:23;4.97;;;1.10;;
43519;SDS011;46848;51.980;5.918;2023-04-01T00:19:49;2.10;;;0.90;;
43519;SDS011;46848;51.980;5.918;2023-04-01T00:22:14;4.07;;;1.10;;
43519;SDS011;46848;51.980;5.918;2023-04-01T00:24:40;4.13;;;1.33;;
43519;SDS011;46848;51.980;5.918;2023-04-01T00:27:06;3.37;;;1.30;;
43519;SDS011;46848;51.980;5.918;2023-04-01T00:29:33;3.57;;;1.07;;
43519;SDS011;46848;51.980;5.918;2023-04-01T00:32:00;4.13;;;1.30;;
43519;SDS011;46848;51.980;5.918;2023-04-01T00:34:25;4.50;;;1.30;;
43519;SDS011;46848;51.980;5.918;2023-04-01T00:36:51;3.63;;;1.40;;
43519;SDS011;46848;51.980;5.918;2023-04-01T00:39:18;4.80;;;1.40;;
43519;SDS011;46848;51.980;5.918;2023-04-01T00:41:44;5.50;;;2.00;;
43519;SDS011;46848;51.980;5.918;2023-04-01T00:44:18;3.93;;;1.50;;
43519;SDS011;46848;51.980;5.918;2023-04-01T00:46:43;4.03;;;1.70;;
43519;SDS011;46848;51.980;5.918;2023-04-01T00:49:09;3.73;;;1.43;;
43519;SDS011;46848;51.980;5.918;2023-04-01T00:51:35;3.20;;;1.60;;
43519;SDS011;46848;51.980;5.918;2023-04-01T00:54:03;5.47;;;1.90;;
43519;SDS011;46848;51.980;5.918;2023-04-01T00:56:32;5.40;;;2.50;;
43519;SDS011;46848;51.980;5.918;2023-04-01T00:59:02;3.83;;;1.97;;
43519;SDS011;46848;51.980;5.918;2023-04-01T01:01:33;8.77;;;2.50;;
43519;SDS011;46848;51.980;5.918;2023-04-01T01:04:00;4.27;;;2.67;;
43519;SDS011;46848;51.980;5.918;2023-04-01T01:06:37;6.10;;;3.10;;
43519;SDS011;46848;51.980;5.918;2023-04-01T01:12:25;7.20;;;3.77;;
43519;SDS011;46848;51.980;5.918;2023-04-01T01:17:44;6.30;;;4.07;;
43519;SDS011;46848;51.980;5.918;2023-04-01T01:29:07;9.77;;;5.63;;
43519;SDS011;46848;51.980;5.918;2023-04-01T01:37:41;8.10;;;5.43;;
43519;SDS011;46848;51.980;5.918;2023-04-01T01:40:11;9.43;;;5.60;;
43519;SDS011;46848;51.980;5.918;2023-04-01T01:42:38;9.60;;;5.83;;
43519;SDS011;46848;51.980;5.918;2023-04-01T01:45:07;11.67;;;6.60;;
43519;SDS011;46848;51.980;5.918;2023-04-01T01:47:35;8.90;;;5.80;;
43519;SDS011;46848;51.980;5.918;2023-04-01T01:50:02;10.10;;;7.20;;
43519;SDS011;46848;51.980;5.918;2023-04-01T01:52:29;10.23;;;6.95;;
43519;SDS011;46848;51.980;5.918;2023-04-01T01:54:56;7.20;;;5.80;;
43519;SDS011;46848;51.980;5.918;2023-04-01T01:57:26;6.78;;;5.30;;
43519;SDS011;46848;51.980;5.918;2023-04-01T01:59:56;7.75;;;5.78;;
43519;SDS011;46848;51.980;5.918;2023-04-01T02:02:28;8.70;;;4.75;;
43519;SDS011;46848;51.980;5.918;2023-04-01T02:04:56;6.60;;;4.35;;
43519;SDS011;46848;51.980;5.918;2023-04-01T02:07:27;9.07;;;5.50;;
43519;SDS011;46848;51.980;5.918;2023-04-01T02:09:56;8.05;;;5.25;;
43519;SDS011;46848;51.980;5.918;2023-04-01T02:12:22;8.60;;;4.57;;
43519;SDS011;46848;51.980;5.918;2023-04-01T02:14:51;8.93;;;4.50;;
43519;SDS011;46848;51.980;5.918;2023-04-01T02:17:20;8.93;;;4.18;;
43519;SDS011;46848;51.980;5.918;2023-04-01T02:19:57;6.93;;;3.23;;
43519;SDS011;46848;51.980;5.918;2023-04-01T02:22:32;8.40;;;3.80;;
43519;SDS011;46848;51.980;5.918;2023-04-01T02:25:07;6.73;;;3.60;;
43519;SDS011;46848;51.980;5.918;2023-04-01T02:27:35;7.53;;;3.93;;
43519;SDS011;46848;51.980;5.918;2023-04-01T02:30:02;10.03;;;3.30;;
43519;SDS011;46848;51.980;5.918;2023-04-01T02:32:28;6.27;;;3.03;;
43519;SDS011;46848;51.980;5.918;2023-04-01T02:34:55;9.20;;;3.50;;
43519;SDS011;46848;51.980;5.918;2023-04-01T02:37:21;8.32;;;3.65;;
43519;SDS011;46848;51.980;5.918;2023-04-01T02:39:48;6.43;;;3.03;;
43519;SDS011;46848;51.980;5.918;2023-04-01T02:42:13;7.45;;;3.05;;
43519;SDS011;46848;51.980;5.918;2023-04-01T02:44:39;10.63;;;3.67;;
43519;SDS011;46848;51.980;5.918;2023-04-01T02:47:05;6.27;;;3.30;;
43519;SDS011;46848;51.980;5.918;2023-04-01T02:49:30;8.80;;;3.67;;
43519;SDS011;46848;51.980;5.918;2023-04-01T02:51:56;8.30;;;3.30;;
43519;SDS011;46848;51.980;5.918;2023-04-01T02:54:22;9.07;;;3.53;;
43519;SDS011;46848;51.980;5.918;2023-04-01T02:56:47;8.10;;;3.03;;
43519;SDS011;46848;51.980;5.918;2023-04-01T02:59:13;8.20;;;3.27;;
43519;SDS011;46848;51.980;5.918;2023-04-01T03:01:39;8.63;;;3.77;;
43519;SDS011;46848;51.980;5.918;2023-04-01T03:04:04;6.87;;;3.33;;
43519;SDS011;46848;51.980;5.918;2023-04-01T03:06:30;7.53;;;3.43;;
43519;SDS011;46848;51.980;5.918;2023-04-01T03:08:56;7.00;;;3.40;;
43519;SDS011;46848;51.980;5.918;2023-04-01T03:11:22;5.63;;;3.13;;
43519;SDS011;46848;51.980;5.918;2023-04-01T03:13:47;6.73;;;3.77;;
43519;SDS011;46848;51.980;5.918;2023-04-01T03:16:13;5.90;;;3.87;;
43519;SDS011;46848;51.980;5.918;2023-04-01T03:18:39;7.23;;;5.50;;
43519;SDS011;46848;51.980;5.918;2023-04-01T03:21:15;14.33;;;12.83;;
43519;SDS011;46848;51.980;5.918;2023-04-01T03:23:46;9.87;;;7.90;;
43519;SDS011;46848;51.980;5.918;2023-04-01T03:26:11;7.37;;;5.30;;
43519;SDS011;46848;51.980;5.918;2023-04-01T03:28:38;4.33;;;3.43;;
43519;SDS011;46848;51.980;5.918;2023-04-01T03:31:04;4.50;;;3.20;;
43519;SDS011;46848;51.980;5.918;2023-04-01T03:33:30;4.87;;;3.30;;
43519;SDS011;46848;51.980;5.918;2023-04-01T03:35:56;4.97;;;3.43;;
43519;SDS011;46848;51.980;5.918;2023-04-01T03:38:22;5.23;;;3.67;;
43519;SDS011;46848;51.980;5.918;2023-04-01T03:40:47;5.63;;;3.80;;
43519;SDS011;46848;51.980;5.918;2023-04-01T03:43:13;7.03;;;3.40;;
43519;SDS011;46848;51.980;5.918;2023-04-01T03:45:45;5.33;;;3.37;;
43519;SDS011;46848;51.980;5.918;2023-04-01T03:48:12;4.27;;;3.13;;
43519;SDS011;46848;51.980;5.918;2023-04-01T03:50:41;4.60;;;3.20;;
43519;SDS011;46848;51.980;5.918;2023-04-01T03:53:08;5.43;;;3.60;;
43519;SDS011;46848;51.980;5.918;2023-04-01T03:55:37;3.90;;;3.00;;
43519;SDS011;46848;51.980;5.918;2023-04-01T03:58:04;3.60;;;2.60;;
43519;SDS011;46848;51.980;5.918;2023-04-01T04:00:30;4.83;;;3.37;;
43519;SDS011;46848;51.980;5.918;2023-04-01T04:02:56;3.80;;;2.70;;
43519;SDS011;46848;51.980;5.918;2023-04-01T04:05:25;6.10;;;3.23;;
43519;SDS011;46848;51.980;5.918;2023-04-01T04:07:52;4.00;;;3.10;;
43519;SDS011;46848;51.980;5.918;2023-04-01T04:10:18;7.10;;;3.63;;
43519;SDS011;46848;51.980;5.918;2023-04-01T04:12:44;4.17;;;3.00;;
43519;SDS011;46848;51.980;5.918;2023-04-01T04:15:10;3.93;;;2.70;;
43519;SDS011;46848;51.980;5.918;2023-04-01T04:17:36;4.30;;;3.00;;
43519;SDS011;46848;51.980;5.918;2023-04-01T04:20:02;4.63;;;3.20;;
43519;SDS011;46848;51.980;5.918;2023-04-01T04:22:28;7.10;;;3.50;;
43519;SDS011;46848;51.980;5.918;2023-04-01T04:24:54;5.20;;;3.40;;
43519;SDS011;46848;51.980;5.918;2023-04-01T04:27:19;4.70;;;3.60;;
43519;SDS011;46848;51.980;5.918;2023-04-01T04:29:45;4.03;;;3.40;;
43519;SDS011;46848;51.980;5.918;2023-04-01T04:32:11;5.60;;;4.13;;
43519;SDS011;46848;51.980;5.918;2023-04-01T04:34:36;7.07;;;5.53;;
43519;SDS011;46848;51.980;5.918;2023-04-01T04:37:02;7.43;;;5.40;;
43519;SDS011;46848;51.980;5.918;2023-04-01T04:39:28;5.90;;;4.47;;
43519;SDS011;46848;51.980;5.918;2023-04-01T04:41:54;6.03;;;4.67;;
43519;SDS011;46848;51.980;5.918;2023-04-01T04:44:20;6.23;;;4.80;;
43519;SDS011;46848;51.980;5.918;2023-04-01T04:46:45;6.97;;;4.97;;
43519;SDS011;46848;51.980;5.918;2023-04-01T04:49:11;5.60;;;4.20;;
43519;SDS011;46848;51.980;5.918;2023-04-01T04:51:37;8.90;;;4.17;;
43519;SDS011;46848;51.980;5.918;2023-04-01T04:54:04;6.67;;;4.40;;
43519;SDS011;46848;51.980;5.918;2023-04-01T04:56:31;5.20;;;3.73;;
43519;SDS011;46848;51.980;5.918;2023-04-01T04:58:57;5.80;;;4.10;;
43519;SDS011;46848;51.980;5.918;2023-04-01T05:01:23;5.93;;;3.90;;
43519;SDS011;46848;51.980;5.918;2023-04-01T05:03:49;4.10;;;3.33;;
43519;SDS011;46848;51.980;5.918;2023-04-01T05:06:15;6.10;;;4.13;;
43519;SDS011;46848;51.980;5.918;2023-04-01T05:08:42;5.10;;;4.03;;
43519;SDS011;46848;51.980;5.918;2023-04-01T05:11:09;5.70;;;4.20;;
43519;SDS011;46848;51.980;5.918;2023-04-01T05:13:38;5.30;;;3.70;;
43519;SDS011;46848;51.980;5.918;2023-04-01T05:16:07;4.83;;;4.07;;
43519;SDS011;46848;51.980;5.918;2023-04-01T05:18:33;5.80;;;3.87;;
43519;SDS011;46848;51.980;5.918;2023-04-01T05:20:59;6.23;;;4.60;;
43519;SDS011;46848;51.980;5.918;2023-04-01T05:23:26;5.33;;;4.43;;
43519;SDS011;46848;51.980;5.918;2023-04-01T05:25:51;5.60;;;4.67;;
43519;SDS011;46848;51.980;5.918;2023-04-01T05:28:18;6.13;;;4.73;;
43519;SDS011;46848;51.980;5.918;2023-04-01T05:30:44;6.43;;;4.17;;
43519;SDS011;46848;51.980;5.918;2023-04-01T05:33:11;5.93;;;4.80;;
43519;SDS011;46848;51.980;5.918;2023-04-01T05:35:37;6.70;;;4.70;;
43519;SDS011;46848;51.980;5.918;2023-04-01T05:38:03;5.27;;;4.00;;
43519;SDS011;46848;51.980;5.918;2023-04-01T05:40:30;6.43;;;4.40;;
43519;SDS011;46848;51.980;5.918;2023-04-01T05:42:56;5.47;;;4.20;;
43519;SDS011;46848;51.980;5.918;2023-04-01T05:45:22;6.17;;;4.47;;
43519;SDS011;46848;51.980;5.918;2023-04-01T05:47:50;6.50;;;4.73;;
43519;SDS011;46848;51.980;5.918;2023-04-01T05:50:16;5.63;;;4.70;;
43519;SDS011;46848;51.980;5.918;2023-04-01T05:52:42;5.37;;;3.97;;
43519;SDS011;46848;51.980;5.918;2023-04-01T05:55:08;4.73;;;3.73;;
43519;SDS011;46848;51.980;5.918;2023-04-01T05:57:34;4.20;;;3.40;;
43519;SDS011;46848;51.980;5.918;2023-04-01T05:59:59;4.63;;;3.45;;
43519;SDS011;46848;51.980;5.918;2023-04-01T06:02:25;4.80;;;3.27;;
43519;SDS011;46848;51.980;5.918;2023-04-01T06:04:54;6.63;;;4.53;;
43519;SDS011;46848;51.980;5.918;2023-04-01T06:07:27;6.33;;;3.83;;
43519;SDS011;46848;51.980;5.918;2023-04-01T06:09:53;5.38;;;3.88;;
43519;SDS011;46848;51.980;5.918;2023-04-01T06:12:33;4.95;;;3.78;;
43519;SDS011;46848;51.980;5.918;2023-04-01T06:24:30;6.75;;;4.72;;
43519;SDS011;46848;51.980;5.918;2023-04-01T06:35:29;7.68;;;5.25;;
43519;SDS011;46848;51.980;5.918;2023-04-01T06:38:26;7.63;;;5.30;;
43519;SDS011;46848;51.980;5.918;2023-04-01T06:46:51;8.70;;;5.68;;
43519;SDS011;46848;51.980;5.918;2023-04-01T06:49:48;9.57;;;5.78;;
43519;SDS011;46848;51.980;5.918;2023-04-01T06:57:54;8.90;;;5.45;;
43519;SDS011;46848;51.980;5.918;2023-04-01T07:00:27;8.35;;;4.90;;
43519;SDS011;46848;51.980;5.918;2023-04-01T07:05:56;7.82;;;4.60;;
43519;SDS011;46848;51.980;5.918;2023-04-01T07:08:26;6.97;;;4.20;;
43519;SDS011;46848;51.980;5.918;2023-04-01T07:10:55;5.80;;;4.18;;
43519;SDS011;46848;51.980;5.918;2023-04-01T07:13:30;6.77;;;3.90;;
43519;SDS011;46848;51.980;5.918;2023-04-01T07:16:24;5.30;;;3.30;;
43519;SDS011;46848;51.980;5.918;2023-04-01T07:19:20;5.80;;;3.83;;
43519;SDS011;46848;51.980;5.918;2023-04-01T07:21:56;5.05;;;3.25;;
43519;SDS011;46848;51.980;5.918;2023-04-01T07:24:50;5.53;;;3.33;;
43519;SDS011;46848;51.980;5.918;2023-04-01T07:27:19;4.80;;;2.75;;
43519;SDS011;46848;51.980;5.918;2023-04-01T07:32:29;4.03;;;2.40;;
43519;SDS011;46848;51.980;5.918;2023-04-01T07:37:51;3.60;;;2.08;;
43519;SDS011;46848;51.980;5.918;2023-04-01T07:43:28;2.95;;;1.85;;
43519;SDS011;46848;51.980;5.918;2023-04-01T07:46:15;3.60;;;2.00;;
43519;SDS011;46848;51.980;5.918;2023-04-01T07:49:06;2.95;;;1.90;;
43519;SDS011;46848;51.980;5.918;2023-04-01T07:54:40;2.55;;;1.63;;
43519;SDS011;46848;51.980;5.918;2023-04-01T07:57:12;3.03;;;1.75;;
43519;SDS011;46848;51.980;5.918;2023-04-01T08:05:18;2.15;;;1.00;;
43519;SDS011;46848;51.980;5.918;2023-04-01T08:16:45;2.42;;;1.30;;
43519;SDS011;46848;51.980;5.918;2023-04-01T08:22:02;2.17;;;1.05;;
43519;SDS011;46848;51.980;5.918;2023-04-01T08:24:44;1.33;;;0.85;;
43519;SDS011;46848;51.980;5.918;2023-04-01T08:27:13;1.33;;;0.90;;
43519;SDS011;46848;51.980;5.918;2023-04-01T08:29:51;1.85;;;1.13;;
43519;SDS011;46848;51.980;5.918;2023-04-01T08:32:25;2.72;;;1.40;;
43519;SDS011;46848;51.980;5.918;2023-04-01T08:35:07;2.60;;;1.20;;
43519;SDS011;46848;51.980;5.918;2023-04-01T08:37:38;2.05;;;1.30;;
43519;SDS011;46848;51.980;5.918;2023-04-01T08:40:16;0.83;;;0.70;;
43519;SDS011;46848;51.980;5.918;2023-04-01T08:42:58;1.30;;;0.80;;
43519;SDS011;46848;51.980;5.918;2023-04-01T08:45:46;1.27;;;0.73;;
43519;SDS011;46848;51.980;5.918;2023-04-01T08:56:33;1.00;;;0.40;;
43519;SDS011;46848;51.980;5.918;2023-04-01T09:10:43;0.80;;;0.30;;
43519;SDS011;46848;51.980;5.918;2023-04-01T09:28:09;1.00;;;0.60;;
43519;SDS011;46848;51.980;5.918;2023-04-01T09:37:13;1.65;;;0.50;;
43519;SDS011;46848;51.980;5.918;2023-04-01T09:51:17;0.93;;;0.70;;
43519;SDS011;46848;51.980;5.918;2023-04-01T09:56:52;1.23;;;0.70;;
43519;SDS011;46848;51.980;5.918;2023-04-01T10:04:45;1.13;;;0.82;;
43519;SDS011;46848;51.980;5.918;2023-04-01T10:29:59;2.88;;;1.40;;
43519;SDS011;46848;51.980;5.918;2023-04-01T10:35:26;2.45;;;1.73;;
43519;SDS011;46848;51.980;5.918;2023-04-01T10:38:22;2.78;;;1.90;;
43519;SDS011;46848;51.980;5.918;2023-04-01T10:44:18;3.97;;;2.72;;
43519;SDS011;46848;51.980;5.918;2023-04-01T10:47:18;3.60;;;2.50;;
43519;SDS011;46848;51.980;5.918;2023-04-01T10:53:15;3.75;;;2.47;;
43519;SDS011;46848;51.980;5.918;2023-04-01T11:20:17;4.90;;;3.67;;
43519;SDS011;46848;51.980;5.918;2023-04-01T11:22:59;4.72;;;3.70;;
43519;SDS011;46848;51.980;5.918;2023-04-01T11:33:44;2.90;;;2.00;;
43519;SDS011;46848;51.980;5.918;2023-04-01T11:45:07;2.22;;;0.82;;
43519;SDS011;46848;51.980;5.918;2023-04-01T12:01:25;1.48;;;0.80;;
43519;SDS011;46848;51.980;5.918;2023-04-01T12:13:05;0.70;;;0.40;;
43519;SDS011;46848;51.980;5.918;2023-04-01T12:16:08;1.00;;;0.52;;
43519;SDS011;46848;51.980;5.918;2023-04-01T12:19:07;0.95;;;0.40;;
43519;SDS011;46848;51.980;5.918;2023-04-01T12:22:23;0.70;;;0.52;;
43519;SDS011;46848;51.980;5.918;2023-04-01T12:24:49;1.23;;;0.68;;
43519;SDS011;46848;51.980;5.918;2023-04-01T12:27:40;1.03;;;0.60;;
43519;SDS011;46848;51.980;5.918;2023-04-01T12:38:21;1.23;;;0.70;;
43519;SDS011;46848;51.980;5.918;2023-04-01T12:43:43;1.52;;;0.80;;
43519;SDS011;46848;51.980;5.918;2023-04-01T12:52:11;2.08;;;1.10;;
43519;SDS011;46848;51.980;5.918;2023-04-01T13:01:03;2.92;;;1.25;;
43519;SDS011;46848;51.980;5.918;2023-04-01T13:06:29;1.30;;;0.90;;
43519;SDS011;46848;51.980;5.918;2023-04-01T13:14:50;1.50;;;0.90;;
43519;SDS011;46848;51.980;5.918;2023-04-01T13:31:13;1.20;;;0.90;;
43519;SDS011;46848;51.980;5.918;2023-04-01T13:42:29;2.90;;;0.90;;
43519;SDS011;46848;51.980;5.918;2023-04-01T13:53:45;0.93;;;0.65;;
43519;SDS011;46848;51.980;5.918;2023-04-01T14:02:21;1.55;;;0.80;;
43519;SDS011;46848;51.980;5.918;2023-04-01T14:05:19;1.58;;;0.93;;
43519;SDS011;46848;51.980;5.918;2023-04-01T14:13:44;1.45;;;0.68;;
43519;SDS011;46848;51.980;5.918;2023-04-01T14:16:35;1.52;;;0.65;;
43519;SDS011;46848;51.980;5.918;2023-04-01T14:22:45;1.90;;;1.00;;
43519;SDS011;46848;51.980;5.918;2023-04-01T14:33:23;2.65;;;1.17;;
43519;SDS011;46848;51.980;5.918;2023-04-01T14:36:01;1.95;;;1.20;;
43519;SDS011;46848;51.980;5.918;2023-04-01T14:50:21;2.08;;;0.95;;
43519;SDS011;46848;51.980;5.918;2023-04-01T14:55:33;1.75;;;0.75;;
43519;SDS011;46848;51.980;5.918;2023-04-01T15:03:38;0.98;;;0.55;;
43519;SDS011;46848;51.980;5.918;2023-04-01T15:06:31;1.20;;;0.70;;
43519;SDS011;46848;51.980;5.918;2023-04-01T15:11:49;0.90;;;0.50;;
43519;SDS011;46848;51.980;5.918;2023-04-01T15:14:24;0.60;;;0.40;;
43519;SDS011;46848;51.980;5.918;2023-04-01T15:17:02;1.80;;;0.77;;
43519;SDS011;46848;51.980;5.918;2023-04-01T15:28:28;2.22;;;1.15;;
43519;SDS011;46848;51.980;5.918;2023-04-01T15:36:43;2.42;;;1.80;;
43519;SDS011;46848;51.980;5.918;2023-04-01T15:39:13;3.78;;;2.40;;
43519;SDS011;46848;51.980;5.918;2023-04-01T15:42:02;2.72;;;1.95;;
43519;SDS011;46848;51.980;5.918;2023-04-01T15:49:54;3.28;;;2.42;;
43519;SDS011;46848;51.980;5.918;2023-04-01T15:58:28;3.33;;;2.33;;
43519;SDS011;46848;51.980;5.918;2023-04-01T16:04:07;4.00;;;2.75;;
43519;SDS011;46848;51.980;5.918;2023-04-01T16:12:16;2.42;;;2.17;;
43519;SDS011;46848;51.980;5.918;2023-04-01T16:18:09;4.18;;;2.35;;
43519;SDS011;46848;51.980;5.918;2023-04-01T16:20:42;2.90;;;2.08;;
43519;SDS011;46848;51.980;5.918;2023-04-01T16:25:53;3.72;;;2.78;;
43519;SDS011;46848;51.980;5.918;2023-04-01T16:28:48;3.00;;;2.35;;
43519;SDS011;46848;51.980;5.918;2023-04-01T16:34:35;3.85;;;2.53;;
43519;SDS011;46848;51.980;5.918;2023-04-01T16:45:43;2.97;;;2.40;;
43519;SDS011;46848;51.980;5.918;2023-04-01T16:48:20;3.75;;;2.80;;
43519;SDS011;46848;51.980;5.918;2023-04-01T16:51:00;3.97;;;2.75;;
43519;SDS011;46848;51.980;5.918;2023-04-01T16:53:48;4.03;;;2.43;;
43519;SDS011;46848;51.980;5.918;2023-04-01T16:56:23;3.10;;;2.67;;
43519;SDS011;46848;51.980;5.918;2023-04-01T17:02:07;2.85;;;2.33;;
43519;SDS011;46848;51.980;5.918;2023-04-01T17:07:47;3.72;;;2.72;;
43519;SDS011;46848;51.980;5.918;2023-04-01T17:16:07;4.13;;;3.00;;
43519;SDS011;46848;51.980;5.918;2023-04-01T17:24:31;5.07;;;3.78;;
43519;SDS011;46848;51.980;5.918;2023-04-01T17:27:31;3.40;;;2.88;;
43519;SDS011;46848;51.980;5.918;2023-04-01T17:30:26;3.50;;;2.78;;
43519;SDS011;46848;51.980;5.918;2023-04-01T17:49:52;4.50;;;3.30;;
43519;SDS011;46848;51.980;5.918;2023-04-01T17:57:59;3.35;;;2.97;;
43519;SDS011;46848;51.980;5.918;2023-04-01T18:00:47;4.63;;;3.72;;
43519;SDS011;46848;51.980;5.918;2023-04-01T18:09:00;3.53;;;3.08;;
43519;SDS011;46848;51.980;5.918;2023-04-01T18:17:21;5.18;;;3.58;;
43519;SDS011;46848;51.980;5.918;2023-04-01T18:22:41;4.90;;;4.35;;
43519;SDS011;46848;51.980;5.918;2023-04-01T18:25:18;5.72;;;4.30;;
43519;SDS011;46848;51.980;5.918;2023-04-01T18:28:11;4.70;;;3.50;;
43519;SDS011;46848;51.980;5.918;2023-04-01T18:38:53;6.85;;;4.57;;
43519;SDS011;46848;51.980;5.918;2023-04-01T18:47:40;6.80;;;5.77;;
43519;SDS011;46848;51.980;5.918;2023-04-01T18:50:47;6.25;;;5.65;;
43519;SDS011;46848;51.980;5.918;2023-04-01T18:56:02;6.20;;;5.47;;
43519;SDS011;46848;51.980;5.918;2023-04-01T19:01:49;6.07;;;5.33;;
43519;SDS011;46848;51.980;5.918;2023-04-01T19:07:19;6.27;;;5.67;;
43519;SDS011;46848;51.980;5.918;2023-04-01T19:10:15;6.67;;;4.97;;
43519;SDS011;46848;51.980;5.918;2023-04-01T19:12:53;5.90;;;5.30;;
43519;SDS011;46848;51.980;5.918;2023-04-01T19:21:01;6.00;;;5.40;;
43519;SDS011;46848;51.980;5.918;2023-04-01T19:32:43;5.40;;;4.90;;
43519;SDS011;46848;51.980;5.918;2023-04-01T19:37:51;6.90;;;5.97;;
43519;SDS011;46848;51.980;5.918;2023-04-01T19:40:48;5.83;;;5.23;;
43519;SDS011;46848;51.980;5.918;2023-04-01T19:49:05;7.03;;;4.60;;
43519;SDS011;46848;51.980;5.918;2023-04-01T19:51:42;5.60;;;4.73;;
43519;SDS011;46848;51.980;5.918;2023-04-01T19:54:19;5.17;;;4.67;;
43519;SDS011;46848;51.980;5.918;2023-04-01T19:57:09;5.03;;;4.33;;
43519;SDS011;46848;51.980;5.918;2023-04-01T20:05:29;7.17;;;6.07;;
43519;SDS011;46848;51.980;5.918;2023-04-01T20:08:18;7.70;;;6.27;;
43519;SDS011;46848;51.980;5.918;2023-04-01T20:14:14;7.70;;;6.60;;
43519;SDS011;46848;51.980;5.918;2023-04-01T20:17:06;6.60;;;6.00;;
43519;SDS011;46848;51.980;5.918;2023-04-01T20:22:34;7.73;;;6.60;;
43519;SDS011;46848;51.980;5.918;2023-04-01T20:25:17;7.67;;;6.70;;
43519;SDS011;46848;51.980;5.918;2023-04-01T20:27:57;6.63;;;5.90;;
43519;SDS011;46848;51.980;5.918;2023-04-01T20:41:55;7.27;;;6.40;;
43519;SDS011;46848;51.980;5.918;2023-04-01T21:12:54;12.27;;;8.37;;
43519;SDS011;46848;51.980;5.918;2023-04-01T21:15:48;10.67;;;7.77;;
43519;SDS011;46848;51.980;5.918;2023-04-01T21:18:40;8.52;;;6.95;;
43519;SDS011;46848;51.980;5.918;2023-04-01T21:32:19;7.63;;;6.80;;
43519;SDS011;46848;51.980;5.918;2023-04-01T21:35:21;7.67;;;6.87;;
43519;SDS011;46848;51.980;5.918;2023-04-01T21:38:04;7.27;;;5.97;;
43519;SDS011;46848;51.980;5.918;2023-04-01T22:05:51;9.03;;;5.50;;
43519;SDS011;46848;51.980;5.918;2023-04-01T22:08:48;6.40;;;5.43;;
43519;SDS011;46848;51.980;5.918;2023-04-01T22:17:20;6.30;;;5.00;;
43519;SDS011;46848;51.980;5.918;2023-04-01T22:43:56;6.17;;;5.40;;
43519;SDS011;46848;51.980;5.918;2023-04-01T22:51:43;8.17;;;5.90;;
43519;SDS011;46848;51.980;5.918;2023-04-01T22:54:43;6.93;;;5.43;;
43519;SDS011;46848;51.980;5.918;2023-04-01T22:57:32;6.03;;;5.03;;
43519;SDS011;46848;51.980;5.918;2023-04-01T23:00:08;6.37;;;5.10;;
43519;SDS011;46848;51.980;5.918;2023-04-01T23:03:06;6.17;;;4.87;;
43519;SDS011;46848;51.980;5.918;2023-04-01T23:05:43;6.73;;;4.17;;
43519;SDS011;46848;51.980;5.918;2023-04-01T23:11:09;6.70;;;5.40;;
43519;SDS011;46848;51.980;5.918;2023-04-01T23:13:50;6.80;;;5.40;;
43519;SDS011;46848;51.980;5.918;2023-04-01T23:16:25;7.30;;;5.77;;
43519;SDS011;46848;51.980;5.918;2023-04-01T23:18:58;6.30;;;5.17;;
43519;SDS011;46848;51.980;5.918;2023-04-01T23:21:38;6.33;;;5.47;;
43519;SDS011;46848;51.980;5.918;2023-04-01T23:24:13;8.93;;;7.10;;
43519;SDS011;46848;51.980;5.918;2023-04-01T23:29:36;9.07;;;7.17;;
43519;SDS011;46848;51.980;5.918;2023-04-01T23:32:05;8.97;;;7.40;;
43519;SDS011;46848;51.980;5.918;2023-04-01T23:34:38;9.40;;;6.73;;
43519;SDS011;46848;51.980;5.918;2023-04-01T23:37:05;8.27;;;7.07;;
43519;SDS011;46848;51.980;5.918;2023-04-01T23:39:37;9.80;;;7.30;;
43519;SDS011;46848;51.980;5.918;2023-04-01T23:42:07;8.77;;;7.50;;
43519;SDS011;46848;51.980;5.918;2023-04-01T23:44:38;9.00;;;6.77;;
43519;SDS011;46848;51.980;5.918;2023-04-01T23:47:05;8.97;;;6.93;;
43519;SDS011;46848;51.980;5.918;2023-04-01T23:49:38;8.83;;;7.17;;
43519;SDS011;46848;51.980;5.918;2023-04-01T23:54:48;10.33;;;6.77;;
43519;SDS011;46848;51.980;5.918;2023-04-01T23:57:29;9.47;;;5.90;;
